Time;durP1;ratioP1;P1;durP2;ratioP2;P2;SDS_P1;SDS_P2;PMS_P1;PMS_P2;Temp;Humidity;BMP_temperature;BMP_pressure;BME280_temperature;BME280_humidity;BME280_pressure;Samples;Min_cycle;Max_cycle;Signal;HPM_P1;HPM_P2
2023/03/18 00:00:49;;;;;;;68.30;11.10;;;;;;;;;;5052808;28;20459;-71
2023/03/18 00:03:16;;;;;;;67.93;10.10;;;;;;;;;;5052748;28;20452;-71
2023/03/18 00:05:45;;;;;;;69.07;10.60;;;;;;;;;;5052861;28;20952;-71
2023/03/18 00:08:12;;;;;;;65.67;10.93;;;;;;;;;;5052974;28;20469;-71
2023/03/18 00:10:39;;;;;;;69.90;10.90;;;;;;;;;;5052499;28;20979;-71
2023/03/18 00:13:06;;;;;;;67.60;11.03;;;;;;;;;;5052576;28;20499;-71
2023/03/18 00:15:33;;;;;;;70.33;9.83;;;;;;;;;;5052796;28;20466;-71
2023/03/18 00:18:00;;;;;;;70.03;11.30;;;;;;;;;;5052375;28;20492;-71
2023/03/18 00:20:37;;;;;;;68.23;10.03;;;;;;;;;;5052614;28;20842;-71
2023/03/18 00:23:06;;;;;;;67.97;10.90;;;;;;;;;;5053103;28;20513;-71
2023/03/18 00:25:33;;;;;;;67.70;10.80;;;;;;;;;;5052462;28;20471;-71
2023/03/18 00:28:01;;;;;;;67.70;11.00;;;;;;;;;;5052364;28;20468;-71
2023/03/18 00:30:28;;;;;;;65.80;10.43;;;;;;;;;;5052022;28;21016;-71
2023/03/18 00:32:56;;;;;;;66.57;10.47;;;;;;;;;;5052644;28;20452;-71
2023/03/18 00:35:26;;;;;;;66.37;10.13;;;;;;;;;;5052551;28;20510;-71
2023/03/18 00:37:53;;;;;;;69.57;11.07;;;;;;;;;;5052898;28;20480;-71
2023/03/18 00:40:28;;;;;;;65.77;9.77;;;;;;;;;;5051985;28;20501;-71
2023/03/18 00:43:06;;;;;;;70.20;11.17;;;;;;;;;;5052036;28;20452;-71
2023/03/18 00:45:34;;;;;;;70.20;11.00;;;;;;;;;;5052250;28;20464;-71
2023/03/18 00:48:01;;;;;;;66.10;10.30;;;;;;;;;;5052024;28;20468;-71
2023/03/18 00:50:29;;;;;;;67.23;10.03;;;;;;;;;;5051838;28;20448;-71
2023/03/18 00:52:56;;;;;;;68.00;10.90;;;;;;;;;;5051950;28;20448;-71
2023/03/18 00:55:24;;;;;;;66.33;10.20;;;;;;;;;;5051715;28;20456;-71
2023/03/18 00:57:52;;;;;;;66.53;9.50;;;;;;;;;;5051973;28;20902;-71
2023/03/18 01:00:20;;;;;;;69.40;10.93;;;;;;;;;;5052019;28;20494;-71
2023/03/18 01:02:48;;;;;;;71.27;10.97;;;;;;;;;;5051871;28;20879;-71
2023/03/18 01:05:16;;;;;;;65.30;10.73;;;;;;;;;;5051793;28;20448;-71
2023/03/18 01:07:43;;;;;;;68.37;11.33;;;;;;;;;;5051840;28;20464;-71
2023/03/18 01:10:11;;;;;;;66.77;10.50;;;;;;;;;;5050933;28;20444;-71
2023/03/18 01:12:40;;;;;;;65.30;9.93;;;;;;;;;;5051787;28;20452;-71
2023/03/18 01:15:08;;;;;;;68.37;9.97;;;;;;;;;;5051775;28;20455;-71
2023/03/18 01:17:35;;;;;;;67.40;10.77;;;;;;;;;;5051529;28;20537;-71
2023/03/18 01:20:03;;;;;;;69.30;11.10;;;;;;;;;;5051346;28;20527;-71
2023/03/18 01:22:30;;;;;;;65.33;9.80;;;;;;;;;;5051785;28;20440;-71
2023/03/18 01:24:57;;;;;;;68.57;10.00;;;;;;;;;;5051866;28;20453;-71
2023/03/18 01:27:25;;;;;;;68.80;10.17;;;;;;;;;;5051709;28;20534;-71
2023/03/18 01:29:54;;;;;;;65.40;10.03;;;;;;;;;;5051339;28;20452;-71
2023/03/18 01:32:22;;;;;;;68.67;10.50;;;;;;;;;;5051433;28;20460;-71
2023/03/18 01:34:50;;;;;;;66.97;10.57;;;;;;;;;;5051375;28;20487;-71
2023/03/18 01:37:18;;;;;;;69.60;11.30;;;;;;;;;;5051247;28;20510;-71
2023/03/18 01:39:45;;;;;;;67.37;10.60;;;;;;;;;;5051279;28;20448;-71
2023/03/18 01:42:13;;;;;;;66.07;10.47;;;;;;;;;;5051585;28;20444;-71
2023/03/18 01:44:41;;;;;;;64.80;9.60;;;;;;;;;;5051347;28;20448;-71
2023/03/18 01:47:10;;;;;;;67.97;9.67;;;;;;;;;;5051335;28;20484;-71
2023/03/18 01:49:40;;;;;;;69.10;10.77;;;;;;;;;;5051068;28;20463;-71
2023/03/18 01:52:10;;;;;;;66.27;10.67;;;;;;;;;;5051455;28;20450;-71
2023/03/18 01:54:40;;;;;;;66.47;10.60;;;;;;;;;;5051609;28;20448;-71
2023/03/18 01:57:07;;;;;;;68.20;10.50;;;;;;;;;;5051301;28;20584;-71
2023/03/18 01:59:37;;;;;;;67.60;10.93;;;;;;;;;;5050826;28;20444;-71
2023/03/18 02:02:07;;;;;;;65.27;9.93;;;;;;;;;;5051010;28;20455;-71
2023/03/18 02:04:38;;;;;;;67.37;10.60;;;;;;;;;;5051276;28;20452;-71
2023/03/18 02:07:07;;;;;;;66.37;9.93;;;;;;;;;;5051320;28;20482;-71
2023/03/18 02:09:34;;;;;;;67.93;10.37;;;;;;;;;;5050933;28;20955;-71
2023/03/18 02:12:02;;;;;;;68.07;10.70;;;;;;;;;;5050972;28;20454;-71
2023/03/18 02:14:29;;;;;;;70.37;13.07;;;;;;;;;;5051038;28;20452;-71
2023/03/18 02:17:00;;;;;;;84.53;20.40;;;;;;;;;;5051140;28;20471;-71
2023/03/18 02:19:36;;;;;;;85.30;19.90;;;;;;;;;;5050947;28;20452;-71
2023/03/18 02:22:09;;;;;;;83.90;19.00;;;;;;;;;;5052878;28;20538;-71
2023/03/18 02:24:40;;;;;;;75.77;15.10;;;;;;;;;;5055481;28;20444;-71
2023/03/18 02:27:15;;;;;;;73.00;12.67;;;;;;;;;;5055103;28;20558;-71
2023/03/18 02:29:43;;;;;;;70.87;13.73;;;;;;;;;;5054632;28;20458;-71
2023/03/18 02:32:11;;;;;;;68.43;12.17;;;;;;;;;;5055001;28;20991;-71
2023/03/18 02:34:39;;;;;;;69.30;13.20;;;;;;;;;;5052816;28;20460;-71
2023/03/18 02:37:07;;;;;;;69.97;12.40;;;;;;;;;;5054429;28;20850;-71
2023/03/18 02:39:34;;;;;;;71.67;12.87;;;;;;;;;;5054392;28;20941;-71
2023/03/18 02:42:03;;;;;;;70.80;12.93;;;;;;;;;;5054521;28;20480;-71
2023/03/18 02:44:31;;;;;;;72.10;12.27;;;;;;;;;;5054214;28;20452;-71
2023/03/18 02:47:01;;;;;;;67.97;10.70;;;;;;;;;;5054166;28;20483;-71
2023/03/18 02:49:29;;;;;;;71.37;10.50;;;;;;;;;;5054128;28;20448;-71
2023/03/18 02:51:56;;;;;;;64.97;10.10;;;;;;;;;;5054364;28;20444;-71
2023/03/18 02:54:24;;;;;;;65.50;9.83;;;;;;;;;;5054364;28;20456;-71
2023/03/18 02:56:51;;;;;;;66.37;9.73;;;;;;;;;;5054066;28;20476;-71
2023/03/18 02:59:19;;;;;;;69.80;10.87;;;;;;;;;;5053792;28;20484;-71
2023/03/18 03:01:49;;;;;;;67.13;10.70;;;;;;;;;;5054257;28;20539;-71
2023/03/18 03:04:16;;;;;;;65.53;9.67;;;;;;;;;;5054012;28;20448;-71
2023/03/18 03:06:44;;;;;;;66.60;10.37;;;;;;;;;;5054144;28;20671;-71
2023/03/18 03:09:13;;;;;;;64.93;9.13;;;;;;;;;;5053628;28;20451;-71
2023/03/18 03:11:40;;;;;;;64.60;8.90;;;;;;;;;;5054035;28;20873;-71
2023/03/18 03:14:08;;;;;;;63.40;8.63;;;;;;;;;;5054105;28;20444;-71
2023/03/18 03:16:36;;;;;;;65.23;8.47;;;;;;;;;;5053980;28;20468;-71
2023/03/18 03:19:05;;;;;;;69.17;8.60;;;;;;;;;;5053203;28;20524;-71
2023/03/18 03:21:34;;;;;;;65.53;8.70;;;;;;;;;;5053661;28;20448;-71
2023/03/18 03:24:01;;;;;;;64.07;8.97;;;;;;;;;;5053587;28;20555;-71
2023/03/18 03:26:29;;;;;;;64.20;9.10;;;;;;;;;;5053678;28;20504;-71
2023/03/18 03:28:56;;;;;;;65.50;8.10;;;;;;;;;;5053394;28;20494;-71
2023/03/18 03:31:23;;;;;;;64.77;7.60;;;;;;;;;;5053667;28;20866;-71
2023/03/18 03:33:51;;;;;;;66.93;9.57;;;;;;;;;;5053221;28;20984;-71
2023/03/18 03:36:19;;;;;;;65.50;11.27;;;;;;;;;;5053591;28;20777;-71
2023/03/18 03:38:47;;;;;;;65.77;9.57;;;;;;;;;;5052888;28;21034;-71
2023/03/18 03:41:15;;;;;;;66.00;10.07;;;;;;;;;;5053444;28;20551;-71
2023/03/18 03:43:43;;;;;;;65.30;9.07;;;;;;;;;;5053481;28;20459;-71
2023/03/18 03:46:11;;;;;;;65.80;8.77;;;;;;;;;;5053412;28;20490;-71
2023/03/18 03:48:38;;;;;;;65.77;9.73;;;;;;;;;;5053053;28;20440;-71
2023/03/18 03:51:05;;;;;;;65.00;9.20;;;;;;;;;;5052885;28;20448;-71
2023/03/18 03:53:35;;;;;;;68.60;9.93;;;;;;;;;;5053587;28;20210;-71
2023/03/18 03:56:02;;;;;;;67.47;11.17;;;;;;;;;;5053368;28;20456;-71
2023/03/18 03:58:29;;;;;;;65.53;10.30;;;;;;;;;;5052929;28;20833;-71
2023/03/18 04:00:56;;;;;;;66.40;11.30;;;;;;;;;;5052981;28;20505;-71
2023/03/18 04:03:24;;;;;;;66.37;10.40;;;;;;;;;;5052901;28;20205;-71
2023/03/18 04:05:51;;;;;;;66.50;9.60;;;;;;;;;;5052847;28;20453;-71
2023/03/18 04:08:18;;;;;;;65.27;9.50;;;;;;;;;;5052652;28;20444;-71
2023/03/18 04:10:47;;;;;;;64.97;8.77;;;;;;;;;;5052641;28;20960;-71
2023/03/18 04:13:15;;;;;;;63.30;7.95;;;;;;;;;;5052901;28;20460;-71
2023/03/18 04:15:42;;;;;;;65.83;8.10;;;;;;;;;;5052657;28;20213;-71
2023/03/18 04:18:09;;;;;;;65.70;8.30;;;;;;;;;;5052253;28;20819;-71
2023/03/18 04:20:37;;;;;;;63.40;7.60;;;;;;;;;;5052475;28;20458;-71
2023/03/18 04:23:04;;;;;;;67.40;9.07;;;;;;;;;;5052572;28;20460;-71
2023/03/18 04:25:32;;;;;;;65.57;9.17;;;;;;;;;;5052393;28;20948;-71
2023/03/18 04:28:00;;;;;;;66.22;10.60;;;;;;;;;;5052380;28;20506;-71
2023/03/18 04:30:27;;;;;;;64.57;8.50;;;;;;;;;;5052381;28;20228;-71
2023/03/18 04:32:55;;;;;;;67.43;8.52;;;;;;;;;;5052502;28;20448;-71
2023/03/18 04:35:23;;;;;;;67.80;10.40;;;;;;;;;;5052420;28;20376;-71
2023/03/18 04:37:50;;;;;;;66.13;10.05;;;;;;;;;;5051982;28;20468;-71
2023/03/18 04:40:18;;;;;;;64.27;8.17;;;;;;;;;;5052005;28;20209;-71
2023/03/18 04:42:46;;;;;;;66.67;7.70;;;;;;;;;;5052411;28;20464;-71
2023/03/18 04:45:15;;;;;;;66.43;8.20;;;;;;;;;;5051429;28;20460;-71
2023/03/18 04:47:43;;;;;;;63.25;8.10;;;;;;;;;;5052243;28;20480;-71
2023/03/18 04:50:11;;;;;;;65.30;8.52;;;;;;;;;;5051953;28;20233;-71
2023/03/18 04:52:38;;;;;;;66.85;7.63;;;;;;;;;;5052302;28;20205;-71
2023/03/18 04:55:06;;;;;;;64.10;8.60;;;;;;;;;;5052042;28;20603;-71
2023/03/18 04:57:34;;;;;;;64.63;9.27;;;;;;;;;;5051740;28;20233;-71
2023/03/18 05:00:03;;;;;;;64.57;8.80;;;;;;;;;;5051261;28;20480;-71
2023/03/18 05:02:32;;;;;;;63.30;7.85;;;;;;;;;;5051978;28;20925;-71
2023/03/18 05:05:00;;;;;;;63.67;7.10;;;;;;;;;;5052154;28;20202;-71
2023/03/18 05:07:27;;;;;;;64.40;8.50;;;;;;;;;;5051998;28;20225;-71
2023/03/18 05:09:54;;;;;;;63.27;7.90;;;;;;;;;;5051682;28;20467;-71
2023/03/18 05:12:21;;;;;;;63.67;7.65;;;;;;;;;;5051611;28;20449;-71
2023/03/18 05:14:48;;;;;;;64.68;8.05;;;;;;;;;;5051842;28;20206;-71
2023/03/18 05:17:15;;;;;;;65.60;8.55;;;;;;;;;;5051852;28;20233;-71
2023/03/18 05:19:45;;;;;;;70.15;8.73;;;;;;;;;;5051273;28;20245;-71
2023/03/18 05:22:12;;;;;;;64.78;8.15;;;;;;;;;;5052003;28;20206;-68
2023/03/18 05:24:40;;;;;;;66.82;8.20;;;;;;;;;;5051552;28;20678;-70
2023/03/18 05:27:07;;;;;;;63.65;7.85;;;;;;;;;;5051507;28;20226;-71
2023/03/18 05:29:35;;;;;;;64.45;8.32;;;;;;;;;;5051409;28;20205;-70
2023/03/18 05:32:03;;;;;;;66.05;8.40;;;;;;;;;;5051569;28;20202;-71
2023/03/18 05:34:30;;;;;;;66.75;8.40;;;;;;;;;;5051913;28;20209;-71
2023/03/18 05:36:58;;;;;;;74.28;9.35;;;;;;;;;;5051518;28;20228;-69
2023/03/18 05:39:25;;;;;;;66.32;9.65;;;;;;;;;;5051024;28;20230;-69
2023/03/18 05:41:53;;;;;;;65.43;8.13;;;;;;;;;;5051499;28;20209;-68
2023/03/18 05:44:20;;;;;;;64.85;9.40;;;;;;;;;;5051518;28;20373;-68
2023/03/18 05:46:47;;;;;;;64.30;8.90;;;;;;;;;;5051865;28;20616;-69
2023/03/18 05:49:14;;;;;;;64.70;9.20;;;;;;;;;;5051280;28;20208;-69
2023/03/18 05:51:41;;;;;;;63.78;7.90;;;;;;;;;;5051466;28;20205;-69
2023/03/18 05:54:10;;;;;;;65.65;9.60;;;;;;;;;;5051592;28;20208;-69
2023/03/18 05:56:42;;;;;;;65.40;9.15;;;;;;;;;;5053911;28;20245;-69
2023/03/18 05:59:09;;;;;;;69.93;10.65;;;;;;;;;;5055173;28;20232;-69
2023/03/18 06:01:36;;;;;;;66.35;9.30;;;;;;;;;;5055753;28;20210;-69
2023/03/18 06:04:05;;;;;;;63.35;8.30;;;;;;;;;;5055116;28;20205;-69
2023/03/18 06:06:32;;;;;;;67.45;8.80;;;;;;;;;;5055021;28;20244;-69
2023/03/18 06:08:59;;;;;;;64.32;8.02;;;;;;;;;;5055026;28;20205;-69
2023/03/18 06:11:29;;;;;;;64.75;8.43;;;;;;;;;;5055672;28;20259;-69
2023/03/18 06:13:57;;;;;;;66.20;8.40;;;;;;;;;;5055057;28;20238;-69
2023/03/18 06:16:24;;;;;;;64.17;8.47;;;;;;;;;;5055116;28;20303;-69
2023/03/18 06:18:52;;;;;;;67.20;8.95;;;;;;;;;;5054629;28;20566;-69
2023/03/18 06:21:19;;;;;;;66.17;10.00;;;;;;;;;;5055283;28;20238;-69
2023/03/18 06:23:46;;;;;;;63.38;8.90;;;;;;;;;;5054849;28;20459;-69
2023/03/18 06:26:14;;;;;;;64.78;8.40;;;;;;;;;;5054825;28;20597;-69
2023/03/18 06:28:42;;;;;;;63.77;8.37;;;;;;;;;;5054624;28;20732;-69
2023/03/18 06:31:10;;;;;;;64.90;8.90;;;;;;;;;;5054785;28;20538;-69
2023/03/18 06:33:37;;;;;;;63.40;8.25;;;;;;;;;;5055205;28;20264;-70
2023/03/18 06:36:04;;;;;;;70.43;10.00;;;;;;;;;;5055678;28;20206;-70
2023/03/18 06:38:31;;;;;;;67.82;11.30;;;;;;;;;;5054670;28;20444;-70
2023/03/18 06:40:59;;;;;;;65.00;9.30;;;;;;;;;;5054664;28;20206;-69
2023/03/18 06:43:26;;;;;;;64.97;8.93;;;;;;;;;;5054535;28;20478;-70
2023/03/18 06:45:55;;;;;;;64.33;8.93;;;;;;;;;;5054346;28;20464;-70
2023/03/18 06:48:23;;;;;;;64.97;8.77;;;;;;;;;;5054500;28;20466;-70
2023/03/18 06:50:51;;;;;;;64.20;8.43;;;;;;;;;;5054306;28;20499;-69
2023/03/18 06:53:20;;;;;;;64.37;8.60;;;;;;;;;;5054678;28;20488;-70
2023/03/18 06:55:48;;;;;;;64.47;8.65;;;;;;;;;;5055088;28;20487;-71
2023/03/18 06:58:16;;;;;;;62.90;8.23;;;;;;;;;;5054015;28;20206;-71
2023/03/18 07:00:44;;;;;;;65.10;8.27;;;;;;;;;;5053712;28;20490;-71
2023/03/18 07:03:14;;;;;;;62.90;7.20;;;;;;;;;;5054221;28;20432;-71
2023/03/18 07:05:41;;;;;;;64.17;7.30;;;;;;;;;;5054474;28;21021;-71
2023/03/18 07:08:09;;;;;;;67.10;8.00;;;;;;;;;;5053196;28;20464;-71
2023/03/18 07:10:36;;;;;;;62.57;7.10;;;;;;;;;;5053721;28;20449;-71
2023/03/18 07:13:03;;;;;;;64.87;7.40;;;;;;;;;;5054059;28;20497;-71
2023/03/18 07:15:31;;;;;;;63.35;6.78;;;;;;;;;;5054142;28;20452;-71
2023/03/18 07:17:59;;;;;;;64.28;8.27;;;;;;;;;;5053926;28;20229;-71
2023/03/18 07:20:28;;;;;;;64.10;6.85;;;;;;;;;;5053648;28;20232;-71
2023/03/18 07:22:55;;;;;;;62.55;7.53;;;;;;;;;;5053835;28;20213;-71
2023/03/18 07:25:22;;;;;;;63.08;6.85;;;;;;;;;;5053905;28;20205;-71
2023/03/18 07:27:49;;;;;;;63.30;6.70;;;;;;;;;;5053844;28;20601;-71
2023/03/18 07:30:17;;;;;;;67.55;7.15;;;;;;;;;;5053501;28;20446;-71
2023/03/18 07:32:45;;;;;;;64.50;7.17;;;;;;;;;;5053922;28;20206;-71
2023/03/18 07:35:13;;;;;;;63.43;7.27;;;;;;;;;;5053847;28;20502;-71
2023/03/18 07:37:42;;;;;;;65.13;6.97;;;;;;;;;;5053557;28;21050;-71
2023/03/18 07:40:10;;;;;;;63.20;7.00;;;;;;;;;;5052971;28;21103;-71
2023/03/18 07:42:37;;;;;;;64.43;7.70;;;;;;;;;;5053685;28;20458;-71
2023/03/18 07:45:05;;;;;;;60.60;6.27;;;;;;;;;;5053429;28;20456;-71
2023/03/18 07:47:32;;;;;;;63.47;7.00;;;;;;;;;;5053511;28;20476;-72
2023/03/18 07:49:59;;;;;;;61.07;6.23;;;;;;;;;;5052923;28;20454;-72
2023/03/18 07:52:26;;;;;;;62.40;6.73;;;;;;;;;;5053345;28;20451;-71
2023/03/18 07:54:55;;;;;;;64.40;6.83;;;;;;;;;;5052982;28;20448;-71
2023/03/18 07:57:22;;;;;;;61.23;6.07;;;;;;;;;;5053259;28;20970;-71
2023/03/18 07:59:49;;;;;;;61.93;6.77;;;;;;;;;;5052821;28;20495;-71
2023/03/18 08:02:16;;;;;;;64.77;7.43;;;;;;;;;;5053162;28;20535;-71
2023/03/18 08:04:45;;;;;;;61.77;6.53;;;;;;;;;;5052899;28;20832;-71
2023/03/18 08:07:12;;;;;;;61.50;6.90;;;;;;;;;;5052850;28;20464;-71
2023/03/18 08:09:39;;;;;;;63.10;6.17;;;;;;;;;;5052581;28;20444;-72
2023/03/18 08:12:08;;;;;;;64.00;6.83;;;;;;;;;;5053086;28;20444;-72
2023/03/18 08:14:36;;;;;;;62.50;7.40;;;;;;;;;;5052860;28;20539;-71
2023/03/18 08:17:03;;;;;;;60.53;5.80;;;;;;;;;;5052646;28;20973;-71
2023/03/18 08:19:31;;;;;;;62.87;6.30;;;;;;;;;;5051147;28;20476;-69
2023/03/18 08:21:58;;;;;;;64.90;6.60;;;;;;;;;;5052513;28;20543;-69
2023/03/18 08:24:26;;;;;;;64.63;6.90;;;;;;;;;;5052758;28;20475;-69
2023/03/18 08:26:53;;;;;;;63.70;6.70;;;;;;;;;;5052360;28;20483;-69
2023/03/18 08:29:22;;;;;;;62.00;6.87;;;;;;;;;;5052141;28;20957;-69
2023/03/18 08:31:50;;;;;;;63.70;5.90;;;;;;;;;;5052452;28;21042;-69
2023/03/18 08:34:17;;;;;;;61.90;6.37;;;;;;;;;;5052200;28;20459;-69
2023/03/18 08:36:45;;;;;;;63.27;6.03;;;;;;;;;;5052287;28;20480;-69
2023/03/18 08:39:12;;;;;;;62.63;5.97;;;;;;;;;;5052098;28;20453;-69
2023/03/18 08:41:39;;;;;;;62.33;6.40;;;;;;;;;;5052316;28;20451;-70
2023/03/18 08:44:07;;;;;;;61.10;6.20;;;;;;;;;;5052217;28;20949;-70
2023/03/18 08:46:35;;;;;;;64.13;6.10;;;;;;;;;;5052098;28;20520;-70
2023/03/18 08:49:03;;;;;;;59.77;4.80;;;;;;;;;;5051743;28;20455;-70
2023/03/18 08:51:31;;;;;;;61.57;4.87;;;;;;;;;;5052609;28;20448;-70
2023/03/18 08:53:59;;;;;;;61.47;5.00;;;;;;;;;;5052145;28;20476;-71
2023/03/18 08:56:26;;;;;;;61.30;5.13;;;;;;;;;;5052048;28;20996;-70
2023/03/18 08:58:53;;;;;;;60.37;4.27;;;;;;;;;;5051819;28;20463;-70
2023/03/18 09:01:21;;;;;;;60.00;4.47;;;;;;;;;;5051784;28;20487;-71
2023/03/18 09:03:49;;;;;;;59.53;4.20;;;;;;;;;;5052215;28;20832;-71
2023/03/18 09:06:16;;;;;;;59.97;4.70;;;;;;;;;;5052002;28;20992;-71
2023/03/18 09:08:44;;;;;;;60.60;4.57;;;;;;;;;;5051851;28;20448;-71
2023/03/18 09:11:12;;;;;;;60.27;3.97;;;;;;;;;;5051914;28;20451;-71
2023/03/18 09:13:39;;;;;;;66.60;4.03;;;;;;;;;;5051832;28;20949;-71
2023/03/18 09:16:07;;;;;;;61.00;4.00;;;;;;;;;;5051704;28;20876;-71
2023/03/18 09:18:35;;;;;;;59.17;4.20;;;;;;;;;;5051709;28;20548;-71
2023/03/18 09:21:03;;;;;;;59.20;3.73;;;;;;;;;;5051754;28;20828;-71
2023/03/18 09:23:31;;;;;;;62.57;4.30;;;;;;;;;;5052006;28;20448;-71
2023/03/18 09:25:58;;;;;;;63.40;3.90;;;;;;;;;;5051744;28;20529;-71
2023/03/18 09:28:25;;;;;;;59.40;3.70;;;;;;;;;;5051611;28;20539;-71
2023/03/18 09:30:54;;;;;;;59.87;3.90;;;;;;;;;;5051182;28;21062;-71
2023/03/18 09:33:21;;;;;;;61.50;4.17;;;;;;;;;;5051783;28;20455;-71
2023/03/18 09:35:49;;;;;;;61.60;3.93;;;;;;;;;;5051759;28;20451;-71
2023/03/18 09:38:19;;;;;;;59.23;3.70;;;;;;;;;;5051344;28;20452;-71
2023/03/18 09:40:51;;;;;;;59.43;4.10;;;;;;;;;;5051224;28;21019;-71
2023/03/18 09:43:25;;;;;;;62.70;3.90;;;;;;;;;;5051432;28;20531;-71
2023/03/18 09:45:58;;;;;;;58.27;3.67;;;;;;;;;;5051505;28;20744;-71
2023/03/18 09:48:38;;;;;;;61.47;3.90;;;;;;;;;;5051657;28;20603;-71
2023/03/18 09:51:09;;;;;;;59.27;3.73;;;;;;;;;;5051395;28;20444;-69
2023/03/18 09:53:41;;;;;;;58.50;3.50;;;;;;;;;;5051590;28;20543;-69
2023/03/18 09:56:10;;;;;;;58.77;3.47;;;;;;;;;;5051318;28;20989;-70
2023/03/18 09:58:43;;;;;;;61.47;3.20;;;;;;;;;;5051235;28;20448;-70
2023/03/18 10:01:11;;;;;;;58.90;3.37;;;;;;;;;;5051389;28;20490;-70
2023/03/18 10:03:40;;;;;;;59.20;3.40;;;;;;;;;;5051511;28;20440;-70
2023/03/18 10:06:09;;;;;;;59.40;3.33;;;;;;;;;;5051009;28;20450;-70
2023/03/18 10:08:45;;;;;;;60.30;3.67;;;;;;;;;;5050857;28;20444;-70
2023/03/18 10:11:18;;;;;;;60.63;3.60;;;;;;;;;;5051457;28;20452;-70
2023/03/18 10:13:48;;;;;;;60.07;3.77;;;;;;;;;;5051125;28;20940;-70
2023/03/18 10:16:20;;;;;;;59.73;3.70;;;;;;;;;;5051109;28;20476;-71
2023/03/18 10:18:47;;;;;;;59.93;3.40;;;;;;;;;;5050957;28;20448;-70
2023/03/18 10:21:21;;;;;;;59.10;3.50;;;;;;;;;;5051420;28;20536;-70
2023/03/18 10:23:52;;;;;;;58.90;2.90;;;;;;;;;;5051593;28;20448;-70
2023/03/18 10:26:21;;;;;;;58.60;3.60;;;;;;;;;;5051245;28;20476;-70
2023/03/18 10:29:00;;;;;;;59.47;3.40;;;;;;;;;;5050808;28;20459;-70
2023/03/18 10:31:32;;;;;;;59.33;3.40;;;;;;;;;;5051677;28;20452;-70
2023/03/18 10:34:01;;;;;;;58.50;3.00;;;;;;;;;;5051392;28;20448;-70
2023/03/18 10:36:31;;;;;;;57.67;3.00;;;;;;;;;;5051032;28;20479;-70
2023/03/18 10:39:01;;;;;;;59.00;2.90;;;;;;;;;;5051243;28;20455;-71
2023/03/18 10:41:31;;;;;;;58.40;3.33;;;;;;;;;;5051137;28;21075;-71
2023/03/18 10:43:59;;;;;;;59.07;3.37;;;;;;;;;;5053829;28;20467;-70
2023/03/18 10:46:27;;;;;;;58.23;2.70;;;;;;;;;;5053957;28;20992;-70
2023/03/18 10:48:56;;;;;;;58.10;2.97;;;;;;;;;;5054280;28;20475;-70
2023/03/18 10:51:27;;;;;;;59.83;3.20;;;;;;;;;;5054469;28;20444;-70
2023/03/18 10:53:57;;;;;;;57.80;3.00;;;;;;;;;;5054280;28;20444;-70
2023/03/18 10:56:26;;;;;;;58.87;2.90;;;;;;;;;;5054688;28;20471;-70
2023/03/18 10:58:53;;;;;;;58.77;3.30;;;;;;;;;;5054047;28;20828;-70
2023/03/18 11:01:21;;;;;;;62.70;3.03;;;;;;;;;;5054187;28;20494;-70
2023/03/18 11:03:51;;;;;;;58.40;2.77;;;;;;;;;;5054195;28;20452;-70
2023/03/18 11:06:20;;;;;;;59.20;2.80;;;;;;;;;;5054550;28;20518;-70
2023/03/18 11:08:48;;;;;;;58.30;2.63;;;;;;;;;;5053771;28;20461;-70
2023/03/18 11:11:16;;;;;;;58.50;2.73;;;;;;;;;;5053919;28;20960;-70
2023/03/18 11:13:48;;;;;;;60.13;3.70;;;;;;;;;;5054065;28;20456;-70
2023/03/18 11:16:22;;;;;;;58.07;3.10;;;;;;;;;;5053898;28;20472;-70
2023/03/18 11:18:51;;;;;;;59.40;3.00;;;;;;;;;;5053690;28;20547;-70
2023/03/18 11:21:19;;;;;;;58.00;2.70;;;;;;;;;;5053937;28;20492;-70
2023/03/18 11:23:55;;;;;;;60.60;3.33;;;;;;;;;;5053678;28;20547;-70
2023/03/18 11:26:22;;;;;;;60.33;3.07;;;;;;;;;;5053941;28;20478;-70
2023/03/18 11:28:55;;;;;;;60.23;2.87;;;;;;;;;;5053653;28;20448;-70
2023/03/18 11:31:22;;;;;;;61.37;3.10;;;;;;;;;;5054474;28;20476;-72
2023/03/18 11:33:49;;;;;;;58.03;3.40;;;;;;;;;;5053915;28;20448;-72
2023/03/18 11:36:18;;;;;;;58.33;2.90;;;;;;;;;;5053973;28;20468;-72
2023/03/18 11:38:56;;;;;;;58.97;2.97;;;;;;;;;;5053364;28;20459;-72
2023/03/18 11:41:24;;;;;;;57.50;2.50;;;;;;;;;;5053361;28;20487;-70
2023/03/18 11:43:59;;;;;;;59.43;2.90;;;;;;;;;;5053360;28;20446;-70
2023/03/18 11:46:27;;;;;;;58.53;3.00;;;;;;;;;;5053161;28;20487;-70
2023/03/18 11:48:54;;;;;;;58.00;2.80;;;;;;;;;;5053136;28;20820;-70
2023/03/18 11:51:38;;;;;;;58.73;2.70;;;;;;;;;;5053443;28;20456;-69
2023/03/18 11:54:12;;;;;;;58.37;3.10;;;;;;;;;;5053064;28;20953;-70
2023/03/18 11:56:42;;;;;;;57.60;2.50;;;;;;;;;;5053543;28;20476;-70
2023/03/18 11:59:19;;;;;;;58.77;2.80;;;;;;;;;;5053013;28;20535;-72
2023/03/18 12:01:50;;;;;;;57.20;2.63;;;;;;;;;;5053200;28;20900;-70
2023/03/18 12:04:27;;;;;;;58.50;2.80;;;;;;;;;;5053078;28;20452;-70
2023/03/18 12:07:00;;;;;;;58.27;3.00;;;;;;;;;;5052778;28;21064;-70
2023/03/18 12:09:31;;;;;;;57.87;3.00;;;;;;;;;;5052777;28;20448;-70
2023/03/18 12:12:06;;;;;;;59.60;3.97;;;;;;;;;;5052950;28;20446;-70
2023/03/18 12:14:39;;;;;;;57.97;2.97;;;;;;;;;;5052963;28;20455;-70
2023/03/18 12:17:17;;;;;;;58.63;3.37;;;;;;;;;;5052799;28;20473;-70
2023/03/18 12:19:55;;;;;;;57.87;2.73;;;;;;;;;;5052625;28;20454;-70
2023/03/18 12:22:29;;;;;;;57.70;2.57;;;;;;;;;;5052792;28;20567;-70
2023/03/18 12:25:11;;;;;;;57.80;3.10;;;;;;;;;;5052662;28;20439;-70
2023/03/18 12:27:43;;;;;;;57.60;2.47;;;;;;;;;;5049647;28;20477;-71
2023/03/18 12:30:19;;;;;;;58.43;2.80;;;;;;;;;;5052471;28;20452;-71
2023/03/18 12:32:49;;;;;;;59.30;2.90;;;;;;;;;;5052695;28;20444;-71
2023/03/18 12:35:33;;;;;;;58.50;2.93;;;;;;;;;;5052515;28;20482;-71
2023/03/18 12:38:12;;;;;;;58.53;2.90;;;;;;;;;;5052628;28;20464;-71
2023/03/18 12:40:46;;;;;;;57.90;2.83;;;;;;;;;;5052352;28;20487;-71
2023/03/18 12:43:33;;;;;;;57.60;2.60;;;;;;;;;;5052530;28;20457;-71
2023/03/18 12:46:04;;;;;;;58.60;2.90;;;;;;;;;;5052149;28;20467;-71
2023/03/18 12:48:33;;;;;;;58.77;2.70;;;;;;;;;;5052095;28;20463;-71
2023/03/18 12:51:04;;;;;;;58.97;2.50;;;;;;;;;;5052416;28;20959;-71
2023/03/18 12:53:33;;;;;;;59.57;2.77;;;;;;;;;;5052310;28;20794;-71
2023/03/18 12:56:02;;;;;;;59.40;2.93;;;;;;;;;;5052247;28;20444;-71
2023/03/18 12:58:32;;;;;;;60.57;2.97;;;;;;;;;;5051993;28;20451;-71
2023/03/18 13:01:05;;;;;;;57.70;2.57;;;;;;;;;;5051765;28;20549;-71
2023/03/18 13:03:35;;;;;;;59.40;2.60;;;;;;;;;;5052192;28;20498;-71
2023/03/18 13:06:04;;;;;;;57.77;2.70;;;;;;;;;;5051356;28;20482;-71
2023/03/18 13:08:41;;;;;;;58.30;2.90;;;;;;;;;;5051782;28;20448;-72
2023/03/18 13:11:11;;;;;;;58.93;2.80;;;;;;;;;;5051782;28;20447;-71
2023/03/18 13:13:40;;;;;;;58.53;2.57;;;;;;;;;;5052121;28;20536;-71
2023/03/18 13:16:07;;;;;;;56.90;2.43;;;;;;;;;;5051906;28;20808;-71
2023/03/18 13:18:42;;;;;;;58.30;2.87;;;;;;;;;;5051705;28;20456;-72
2023/03/18 13:21:12;;;;;;;57.67;2.23;;;;;;;;;;5051658;28;21016;-71
2023/03/18 13:23:47;;;;;;;61.10;3.13;;;;;;;;;;5051654;28;20504;-71
2023/03/18 13:26:17;;;;;;;57.70;2.60;;;;;;;;;;5051667;28;20968;-71
2023/03/18 13:28:57;;;;;;;59.90;2.80;;;;;;;;;;5051622;28;20836;-71
2023/03/18 13:31:30;;;;;;;58.07;2.90;;;;;;;;;;5051736;28;20498;-71
2023/03/18 13:34:06;;;;;;;57.60;2.90;;;;;;;;;;5051551;28;20458;-71
2023/03/18 13:37:00;;;;;;;58.10;3.10;;;;;;;;;;5051478;28;20475;-71
2023/03/18 13:39:36;;;;;;;58.07;2.67;;;;;;;;;;4993338;28;20519;-71
2023/03/18 13:42:24;;;;;;;57.80;2.87;;;;;;;;;;5051449;28;20848;-71
2023/03/18 13:44:58;;;;;;;57.70;2.70;;;;;;;;;;5043874;28;20452;-71
2023/03/18 13:47:25;;;;;;;57.80;2.77;;;;;;;;;;5051410;28;20472;-71
2023/03/18 13:50:00;;;;;;;58.10;3.27;;;;;;;;;;5051052;28;20448;-72
2023/03/18 13:52:33;;;;;;;58.57;2.73;;;;;;;;;;5051485;28;20448;-71
2023/03/18 13:55:03;;;;;;;59.50;2.70;;;;;;;;;;5051328;28;20949;-71
2023/03/18 13:57:35;;;;;;;58.47;2.93;;;;;;;;;;5051087;28;20887;-70
2023/03/18 14:00:14;;;;;;;58.87;3.27;;;;;;;;;;5051141;28;20440;-71
2023/03/18 14:02:44;;;;;;;59.37;2.90;;;;;;;;;;5051627;28;20533;-71
2023/03/18 14:05:33;;;;;;;57.67;2.70;;;;;;;;;;5051671;28;20448;-70
2023/03/18 14:08:04;;;;;;;61.10;2.97;;;;;;;;;;5051329;28;20468;-71
2023/03/18 14:10:31;;;;;;;58.13;3.10;;;;;;;;;;5051240;28;20487;-71
2023/03/18 14:13:18;;;;;;;57.47;2.50;;;;;;;;;;5051375;28;20441;-71
2023/03/18 14:15:45;;;;;;;57.40;2.40;;;;;;;;;;5051271;28;20448;-71
2023/03/18 14:18:26;;;;;;;59.27;2.87;;;;;;;;;;5054366;28;20468;-71
2023/03/18 14:20:54;;;;;;;59.30;2.97;;;;;;;;;;5054624;28;20944;-71
2023/03/18 14:23:35;;;;;;;59.00;3.17;;;;;;;;;;5055013;28;20458;-71
2023/03/18 14:26:04;;;;;;;58.97;3.13;;;;;;;;;;5055014;28;20480;-71
2023/03/18 14:28:42;;;;;;;57.90;2.90;;;;;;;;;;5054607;28;20450;-71
2023/03/18 14:31:19;;;;;;;58.17;2.77;;;;;;;;;;5054992;28;20554;-71
2023/03/18 14:33:58;;;;;;;58.80;3.00;;;;;;;;;;5054954;28;20452;-71
2023/03/18 14:36:29;;;;;;;58.90;2.83;;;;;;;;;;5054607;28;20984;-71
2023/03/18 14:39:01;;;;;;;58.97;3.27;;;;;;;;;;5054308;28;20486;-69